Ginys del Meteocat

Dades de l'estació automàtica Port de Barcelona - Bocana Sud

?
?
Resum diari 12:00 TU
Dades diàries de l'estació meteorològica
Ratxa màxima del vent (10 m) 13.0 km/h - 67º 10:45 TU

El tram horari està expressat en Temps Universal (TU). Cal sumar una hora en horari d'hivern i dues en horari d'estiu per passar a l'hora oficial.

Port de Barcelona - Bocana Sud

Metadades estació meteorol´gica
Municipi El Prat de Llobregat
Comarca Baix Llobregat
Altitud 3 m
Data alta 08.04.2015
Estat actual Operativa
Dades de període
Període
TU
VVM (10 m)
km/h
DVM (10 m)
graus
VVX (10 m)
km/h
00:00 - 00:30 5.4 265 6.8
00:30 - 01:00 6.1 264 7.2
01:00 - 01:30 4.3 269 5.4
01:30 - 02:00 5.4 266 6.8
02:00 - 02:30 6.1 268 7.6
02:30 - 03:00 3.2 277 5.4
03:00 - 03:30 2.2 279 4.3
03:30 - 04:00 3.6 276 5.4
04:00 - 04:30 5.4 268 6.5
04:30 - 05:00 5.8 267 7.6
05:00 - 05:30 5.4 272 7.6
05:30 - 06:00 5.8 264 7.6
06:00 - 06:30 1.4 268 4.7
06:30 - 07:00 2.9 265 6.1
07:00 - 07:30 2.9 256 6.8
07:30 - 08:00 0.7 94 4.0
08:00 - 08:30 3.6 107 7.2
08:30 - 09:00 4.7 77 6.8
09:00 - 09:30 5.8 83 9.0
09:30 - 10:00 6.8 55 9.0
10:00 - 10:30 6.8 66 9.7
10:30 - 11:00 10.1 72 13.0
11:00 - 11:30 7.9 77 10.8
11:30 - 12:00 6.5 79 8.6
12:00 - 12:30 7.9 97 10.8
12:30 - 13:00 7.6 114 11.2
13:00 - 13:30 (s/d) (s/d) (s/d)

Les dades en taronja només han passat un control de qualitat automàtic. Resta pendent la seva validació definitiva.